sensor_id;sensor_type;location;lat;lon;timestamp;temperature;humidity
16283;DHT22;8249;48.708;9.030;2024-03-17T00:01:00;5.50;99.90
16283;DHT22;8249;48.708;9.030;2024-03-17T00:03:27;5.60;99.90
16283;DHT22;8249;48.708;9.030;2024-03-17T00:05:59;5.40;99.90
16283;DHT22;8249;48.708;9.030;2024-03-17T00:08:25;5.50;99.90
16283;DHT22;8249;48.708;9.030;2024-03-17T00:10:53;5.50;99.90
16283;DHT22;8249;48.708;9.030;2024-03-17T00:13:20;5.50;99.90
16283;DHT22;8249;48.708;9.030;2024-03-17T00:15:47;5.50;99.90
16283;DHT22;8249;48.708;9.030;2024-03-17T00:18:13;5.50;99.90
16283;DHT22;8249;48.708;9.030;2024-03-17T00:20:40;5.50;99.90
16283;DHT22;8249;48.708;9.030;2024-03-17T00:23:07;5.50;99.90
16283;DHT22;8249;48.708;9.030;2024-03-17T00:25:35;5.50;99.90
16283;DHT22;8249;48.708;9.030;2024-03-17T00:28:01;5.50;99.90
16283;DHT22;8249;48.708;9.030;2024-03-17T00:30:28;5.40;99.90
16283;DHT22;8249;48.708;9.030;2024-03-17T00:32:54;5.40;99.90
16283;DHT22;8249;48.708;9.030;2024-03-17T00:35:23;5.50;99.90
16283;DHT22;8249;48.708;9.030;2024-03-17T00:37:50;5.40;99.90
16283;DHT22;8249;48.708;9.030;2024-03-17T00:40:18;5.40;99.90
16283;DHT22;8249;48.708;9.030;2024-03-17T00:42:45;5.40;99.90
16283;DHT22;8249;48.708;9.030;2024-03-17T00:45:13;5.40;99.90
16283;DHT22;8249;48.708;9.030;2024-03-17T00:47:39;5.40;99.90
16283;DHT22;8249;48.708;9.030;2024-03-17T00:50:06;5.40;99.90
16283;DHT22;8249;48.708;9.030;2024-03-17T00:52:34;5.30;99.90
16283;DHT22;8249;48.708;9.030;2024-03-17T00:55:01;5.30;99.90
16283;DHT22;8249;48.708;9.030;2024-03-17T00:57:28;5.20;99.90
16283;DHT22;8249;48.708;9.030;2024-03-17T00:59:55;5.30;99.90
16283;DHT22;8249;48.708;9.030;2024-03-17T01:02:22;5.30;99.90
16283;DHT22;8249;48.708;9.030;2024-03-17T01:04:49;5.20;99.90
16283;DHT22;8249;48.708;9.030;2024-03-17T01:07:14;5.20;99.90
16283;DHT22;8249;48.708;9.030;2024-03-17T01:09:41;5.20;99.90
16283;DHT22;8249;48.708;9.030;2024-03-17T01:12:07;5.20;99.90
16283;DHT22;8249;48.708;9.030;2024-03-17T01:14:35;5.10;99.90
16283;DHT22;8249;48.708;9.030;2024-03-17T01:17:02;5.20;99.90
16283;DHT22;8249;48.708;9.030;2024-03-17T01:19:30;5.20;99.90
16283;DHT22;8249;48.708;9.030;2024-03-17T01:21:57;5.10;99.90
16283;DHT22;8249;48.708;9.030;2024-03-17T01:24:24;5.20;99.90
16283;DHT22;8249;48.708;9.030;2024-03-17T01:26:50;5.20;99.90
16283;DHT22;8249;48.708;9.030;2024-03-17T01:29:18;5.20;99.90
16283;DHT22;8249;48.708;9.030;2024-03-17T01:31:45;5.30;99.90
16283;DHT22;8249;48.708;9.030;2024-03-17T01:34:12;5.40;99.90
16283;DHT22;8249;48.708;9.030;2024-03-17T01:36:38;5.40;99.90
16283;DHT22;8249;48.708;9.030;2024-03-17T01:39:05;5.40;99.90
16283;DHT22;8249;48.708;9.030;2024-03-17T01:41:31;5.50;99.90
16283;DHT22;8249;48.708;9.030;2024-03-17T01:43:58;5.50;99.90
16283;DHT22;8249;48.708;9.030;2024-03-17T01:46:24;5.50;99.90
16283;DHT22;8249;48.708;9.030;2024-03-17T01:48:53;5.60;99.90
16283;DHT22;8249;48.708;9.030;2024-03-17T01:51:19;5.60;99.90
16283;DHT22;8249;48.708;9.030;2024-03-17T01:53:46;5.70;99.90
16283;DHT22;8249;48.708;9.030;2024-03-17T01:56:14;5.70;99.90
16283;DHT22;8249;48.708;9.030;2024-03-17T01:58:44;5.70;99.90
16283;DHT22;8249;48.708;9.030;2024-03-17T02:01:10;5.70;99.90
16283;DHT22;8249;48.708;9.030;2024-03-17T02:03:40;5.80;99.90
16283;DHT22;8249;48.708;9.030;2024-03-17T02:06:07;5.80;99.90
16283;DHT22;8249;48.708;9.030;2024-03-17T02:08:53;5.80;99.90
16283;DHT22;8249;48.708;9.030;2024-03-17T02:11:25;5.80;99.90
16283;DHT22;8249;48.708;9.030;2024-03-17T02:13:52;5.80;99.90
16283;DHT22;8249;48.708;9.030;2024-03-17T02:16:19;5.90;99.90
16283;DHT22;8249;48.708;9.030;2024-03-17T02:18:45;5.90;99.90
16283;DHT22;8249;48.708;9.030;2024-03-17T02:21:14;5.90;99.90
16283;DHT22;8249;48.708;9.030;2024-03-17T02:23:42;5.90;99.90
16283;DHT22;8249;48.708;9.030;2024-03-17T02:26:09;5.90;99.90
16283;DHT22;8249;48.708;9.030;2024-03-17T02:28:39;5.90;99.90
16283;DHT22;8249;48.708;9.030;2024-03-17T02:31:07;5.90;99.90
16283;DHT22;8249;48.708;9.030;2024-03-17T02:33:35;5.90;99.90
16283;DHT22;8249;48.708;9.030;2024-03-17T02:36:01;5.90;99.90
16283;DHT22;8249;48.708;9.030;2024-03-17T02:38:30;5.90;99.90
16283;DHT22;8249;48.708;9.030;2024-03-17T02:41:16;5.90;99.90
16283;DHT22;8249;48.708;9.030;2024-03-17T02:43:44;5.90;99.90
16283;DHT22;8249;48.708;9.030;2024-03-17T02:46:11;5.90;99.90
16283;DHT22;8249;48.708;9.030;2024-03-17T02:48:39;5.90;99.90
16283;DHT22;8249;48.708;9.030;2024-03-17T02:51:10;5.90;99.90
16283;DHT22;8249;48.708;9.030;2024-03-17T02:53:38;5.80;99.90
16283;DHT22;8249;48.708;9.030;2024-03-17T02:56:06;5.80;99.90
16283;DHT22;8249;48.708;9.030;2024-03-17T02:58:35;5.80;99.90
16283;DHT22;8249;48.708;9.030;2024-03-17T03:01:02;5.80;99.90
16283;DHT22;8249;48.708;9.030;2024-03-17T03:03:30;5.70;99.90
16283;DHT22;8249;48.708;9.030;2024-03-17T03:05:57;5.70;99.90
16283;DHT22;8249;48.708;9.030;2024-03-17T03:08:24;5.70;99.90
16283;DHT22;8249;48.708;9.030;2024-03-17T03:10:51;5.70;99.90
16283;DHT22;8249;48.708;9.030;2024-03-17T03:13:18;5.70;99.90
16283;DHT22;8249;48.708;9.030;2024-03-17T03:15:48;5.70;99.90
16283;DHT22;8249;48.708;9.030;2024-03-17T03:18:15;5.70;99.90
16283;DHT22;8249;48.708;9.030;2024-03-17T03:20:42;5.70;99.90
16283;DHT22;8249;48.708;9.030;2024-03-17T03:23:09;5.70;99.90
16283;DHT22;8249;48.708;9.030;2024-03-17T03:25:36;5.70;99.90
16283;DHT22;8249;48.708;9.030;2024-03-17T03:28:03;5.70;99.90
16283;DHT22;8249;48.708;9.030;2024-03-17T03:30:30;5.70;99.90
16283;DHT22;8249;48.708;9.030;2024-03-17T03:32:58;5.70;99.90
16283;DHT22;8249;48.708;9.030;2024-03-17T03:35:28;5.70;99.90
16283;DHT22;8249;48.708;9.030;2024-03-17T03:37:54;5.70;99.90
16283;DHT22;8249;48.708;9.030;2024-03-17T03:40:20;5.70;99.90
16283;DHT22;8249;48.708;9.030;2024-03-17T03:42:47;5.70;99.90
16283;DHT22;8249;48.708;9.030;2024-03-17T03:45:14;5.60;99.90
16283;DHT22;8249;48.708;9.030;2024-03-17T03:47:42;5.60;99.90
16283;DHT22;8249;48.708;9.030;2024-03-17T03:50:10;5.60;99.90
16283;DHT22;8249;48.708;9.030;2024-03-17T03:52:37;5.60;99.90
16283;DHT22;8249;48.708;9.030;2024-03-17T03:55:07;5.60;99.90
16283;DHT22;8249;48.708;9.030;2024-03-17T03:57:36;5.60;99.90
16283;DHT22;8249;48.708;9.030;2024-03-17T04:00:03;5.60;99.90
16283;DHT22;8249;48.708;9.030;2024-03-17T04:02:38;5.60;99.90
16283;DHT22;8249;48.708;9.030;2024-03-17T04:05:05;5.50;99.90
16283;DHT22;8249;48.708;9.030;2024-03-17T04:07:33;5.50;99.90
16283;DHT22;8249;48.708;9.030;2024-03-17T04:10:01;5.50;99.90
16283;DHT22;8249;48.708;9.030;2024-03-17T04:12:28;5.50;99.90
16283;DHT22;8249;48.708;9.030;2024-03-17T04:14:56;5.50;99.90
16283;DHT22;8249;48.708;9.030;2024-03-17T04:17:23;5.50;99.90
16283;DHT22;8249;48.708;9.030;2024-03-17T04:19:50;5.40;99.90
16283;DHT22;8249;48.708;9.030;2024-03-17T04:22:18;5.40;99.90
16283;DHT22;8249;48.708;9.030;2024-03-17T04:24:47;5.40;99.90
16283;DHT22;8249;48.708;9.030;2024-03-17T04:27:14;5.40;99.90
16283;DHT22;8249;48.708;9.030;2024-03-17T04:29:41;5.40;99.90
16283;DHT22;8249;48.708;9.030;2024-03-17T04:32:07;5.40;99.90
16283;DHT22;8249;48.708;9.030;2024-03-17T04:34:36;5.40;99.90
16283;DHT22;8249;48.708;9.030;2024-03-17T04:37:03;5.40;99.90
16283;DHT22;8249;48.708;9.030;2024-03-17T04:39:30;5.40;99.90
16283;DHT22;8249;48.708;9.030;2024-03-17T04:41:59;5.40;99.90
16283;DHT22;8249;48.708;9.030;2024-03-17T04:44:26;5.40;99.90
16283;DHT22;8249;48.708;9.030;2024-03-17T04:46:54;5.40;99.90
16283;DHT22;8249;48.708;9.030;2024-03-17T04:49:21;5.40;99.90
16283;DHT22;8249;48.708;9.030;2024-03-17T04:51:47;5.30;99.90
16283;DHT22;8249;48.708;9.030;2024-03-17T04:54:15;5.30;99.90
16283;DHT22;8249;48.708;9.030;2024-03-17T04:56:42;5.30;99.90
16283;DHT22;8249;48.708;9.030;2024-03-17T04:59:10;5.20;99.90
16283;DHT22;8249;48.708;9.030;2024-03-17T05:01:37;5.20;99.90
16283;DHT22;8249;48.708;9.030;2024-03-17T05:04:03;5.20;99.90
16283;DHT22;8249;48.708;9.030;2024-03-17T05:06:30;5.20;99.90
16283;DHT22;8249;48.708;9.030;2024-03-17T05:08:57;5.20;99.90
16283;DHT22;8249;48.708;9.030;2024-03-17T05:11:24;5.20;99.90
16283;DHT22;8249;48.708;9.030;2024-03-17T05:13:51;5.30;99.90
16283;DHT22;8249;48.708;9.030;2024-03-17T05:16:19;5.30;99.90
16283;DHT22;8249;48.708;9.030;2024-03-17T05:18:48;5.20;99.90
16283;DHT22;8249;48.708;9.030;2024-03-17T05:21:15;5.30;99.90
16283;DHT22;8249;48.708;9.030;2024-03-17T05:23:42;5.20;99.90
16283;DHT22;8249;48.708;9.030;2024-03-17T05:26:09;5.20;99.90
16283;DHT22;8249;48.708;9.030;2024-03-17T05:28:36;5.20;99.90
16283;DHT22;8249;48.708;9.030;2024-03-17T05:31:03;5.20;99.90
16283;DHT22;8249;48.708;9.030;2024-03-17T05:33:31;5.20;99.90
16283;DHT22;8249;48.708;9.030;2024-03-17T05:36:00;5.20;99.90
16283;DHT22;8249;48.708;9.030;2024-03-17T05:38:28;5.20;99.90
16283;DHT22;8249;48.708;9.030;2024-03-17T05:40:56;5.20;99.90
16283;DHT22;8249;48.708;9.030;2024-03-17T05:43:23;5.20;99.90
16283;DHT22;8249;48.708;9.030;2024-03-17T05:45:51;5.20;99.90
16283;DHT22;8249;48.708;9.030;2024-03-17T05:48:18;5.10;99.90
16283;DHT22;8249;48.708;9.030;2024-03-17T05:50:46;5.10;99.90
16283;DHT22;8249;48.708;9.030;2024-03-17T05:53:13;5.00;99.90
16283;DHT22;8249;48.708;9.030;2024-03-17T05:55:40;5.10;99.90
16283;DHT22;8249;48.708;9.030;2024-03-17T05:58:08;5.00;99.90
16283;DHT22;8249;48.708;9.030;2024-03-17T06:00:36;5.10;99.90
16283;DHT22;8249;48.708;9.030;2024-03-17T06:03:03;5.10;99.90
16283;DHT22;8249;48.708;9.030;2024-03-17T06:05:32;5.10;99.90
16283;DHT22;8249;48.708;9.030;2024-03-17T06:08:01;5.20;99.90
16283;DHT22;8249;48.708;9.030;2024-03-17T06:10:28;5.20;99.90
16283;DHT22;8249;48.708;9.030;2024-03-17T06:12:55;5.30;99.90
16283;DHT22;8249;48.708;9.030;2024-03-17T06:15:23;5.40;99.90
16283;DHT22;8249;48.708;9.030;2024-03-17T06:17:50;5.50;99.90
16283;DHT22;8249;48.708;9.030;2024-03-17T06:20:18;5.60;99.90
16283;DHT22;8249;48.708;9.030;2024-03-17T06:22:44;5.70;99.90
16283;DHT22;8249;48.708;9.030;2024-03-17T06:25:13;5.80;99.90
16283;DHT22;8249;48.708;9.030;2024-03-17T06:27:40;5.90;99.90
16283;DHT22;8249;48.708;9.030;2024-03-17T06:30:11;5.90;99.90
16283;DHT22;8249;48.708;9.030;2024-03-17T06:32:40;6.00;99.90
16283;DHT22;8249;48.708;9.030;2024-03-17T06:35:07;6.10;99.90
16283;DHT22;8249;48.708;9.030;2024-03-17T06:37:34;6.30;99.90
16283;DHT22;8249;48.708;9.030;2024-03-17T06:40:01;6.40;99.90
16283;DHT22;8249;48.708;9.030;2024-03-17T06:42:30;6.50;99.90
16283;DHT22;8249;48.708;9.030;2024-03-17T06:44:56;6.70;99.90
16283;DHT22;8249;48.708;9.030;2024-03-17T06:47:23;6.60;99.90
16283;DHT22;8249;48.708;9.030;2024-03-17T06:49:51;6.70;99.90
16283;DHT22;8249;48.708;9.030;2024-03-17T06:52:17;6.70;99.90
16283;DHT22;8249;48.708;9.030;2024-03-17T06:54:47;6.90;99.90
16283;DHT22;8249;48.708;9.030;2024-03-17T06:57:15;7.10;99.90
16283;DHT22;8249;48.708;9.030;2024-03-17T06:59:43;7.20;99.90
16283;DHT22;8249;48.708;9.030;2024-03-17T07:02:11;7.40;99.90
16283;DHT22;8249;48.708;9.030;2024-03-17T07:04:43;7.60;99.90
16283;DHT22;8249;48.708;9.030;2024-03-17T07:07:10;7.70;99.90
16283;DHT22;8249;48.708;9.030;2024-03-17T07:09:37;7.90;99.90
16283;DHT22;8249;48.708;9.030;2024-03-17T07:12:05;7.90;99.90
16283;DHT22;8249;48.708;9.030;2024-03-17T07:14:32;8.00;99.90
16283;DHT22;8249;48.708;9.030;2024-03-17T07:17:01;7.90;99.90
16283;DHT22;8249;48.708;9.030;2024-03-17T07:19:27;8.00;99.90
16283;DHT22;8249;48.708;9.030;2024-03-17T07:21:56;8.00;99.90
16283;DHT22;8249;48.708;9.030;2024-03-17T07:24:23;8.00;99.90
16283;DHT22;8249;48.708;9.030;2024-03-17T07:26:50;8.00;99.90
16283;DHT22;8249;48.708;9.030;2024-03-17T07:29:17;8.20;99.90
16283;DHT22;8249;48.708;9.030;2024-03-17T07:31:45;8.40;99.90
16283;DHT22;8249;48.708;9.030;2024-03-17T07:34:13;8.70;99.90
16283;DHT22;8249;48.708;9.030;2024-03-17T07:36:40;9.00;99.90
16283;DHT22;8249;48.708;9.030;2024-03-17T07:39:07;9.20;99.90
16283;DHT22;8249;48.708;9.030;2024-03-17T07:41:34;9.40;99.90
16283;DHT22;8249;48.708;9.030;2024-03-17T07:44:01;9.50;99.90
16283;DHT22;8249;48.708;9.030;2024-03-17T07:46:28;9.70;99.90
16283;DHT22;8249;48.708;9.030;2024-03-17T07:48:55;10.00;99.90
16283;DHT22;8249;48.708;9.030;2024-03-17T07:51:23;10.20;99.90
16283;DHT22;8249;48.708;9.030;2024-03-17T07:53:50;10.20;99.90
16283;DHT22;8249;48.708;9.030;2024-03-17T07:56:18;10.20;99.90
16283;DHT22;8249;48.708;9.030;2024-03-17T07:58:45;10.20;99.90
16283;DHT22;8249;48.708;9.030;2024-03-17T08:01:15;10.40;99.90
16283;DHT22;8249;48.708;9.030;2024-03-17T08:03:45;10.50;99.90
16283;DHT22;8249;48.708;9.030;2024-03-17T08:06:12;10.60;99.90
16283;DHT22;8249;48.708;9.030;2024-03-17T08:08:40;10.50;99.90
16283;DHT22;8249;48.708;9.030;2024-03-17T08:11:07;10.50;99.90
16283;DHT22;8249;48.708;9.030;2024-03-17T08:13:34;10.60;99.90
16283;DHT22;8249;48.708;9.030;2024-03-17T08:16:02;10.70;99.90
16283;DHT22;8249;48.708;9.030;2024-03-17T08:18:31;10.90;99.90
16283;DHT22;8249;48.708;9.030;2024-03-17T08:21:00;11.00;99.90
16283;DHT22;8249;48.708;9.030;2024-03-17T08:23:27;11.10;99.90
16283;DHT22;8249;48.708;9.030;2024-03-17T08:25:55;11.50;99.90
16283;DHT22;8249;48.708;9.030;2024-03-17T08:28:23;11.70;99.90
16283;DHT22;8249;48.708;9.030;2024-03-17T08:30:51;11.90;99.90
16283;DHT22;8249;48.708;9.030;2024-03-17T08:33:18;11.90;99.90
16283;DHT22;8249;48.708;9.030;2024-03-17T08:35:53;12.20;99.90
16283;DHT22;8249;48.708;9.030;2024-03-17T08:38:20;12.40;99.90
16283;DHT22;8249;48.708;9.030;2024-03-17T08:40:48;12.80;99.90
16283;DHT22;8249;48.708;9.030;2024-03-17T08:43:18;13.00;99.90
16283;DHT22;8249;48.708;9.030;2024-03-17T08:45:45;13.30;99.90
16283;DHT22;8249;48.708;9.030;2024-03-17T08:48:20;13.50;99.90
16283;DHT22;8249;48.708;9.030;2024-03-17T08:50:50;14.00;99.90
16283;DHT22;8249;48.708;9.030;2024-03-17T08:53:17;14.30;99.90
16283;DHT22;8249;48.708;9.030;2024-03-17T08:55:44;14.60;99.90
16283;DHT22;8249;48.708;9.030;2024-03-17T08:58:11;15.10;99.90
16283;DHT22;8249;48.708;9.030;2024-03-17T09:00:39;15.20;99.90
16283;DHT22;8249;48.708;9.030;2024-03-17T09:03:07;15.40;99.90
16283;DHT22;8249;48.708;9.030;2024-03-17T09:05:36;15.40;99.90
16283;DHT22;8249;48.708;9.030;2024-03-17T09:08:03;15.20;99.90
16283;DHT22;8249;48.708;9.030;2024-03-17T09:10:30;14.90;99.90
16283;DHT22;8249;48.708;9.030;2024-03-17T09:12:57;14.80;99.90
16283;DHT22;8249;48.708;9.030;2024-03-17T09:15:23;14.80;99.90
16283;DHT22;8249;48.708;9.030;2024-03-17T09:17:52;14.90;99.90
16283;DHT22;8249;48.708;9.030;2024-03-17T09:20:19;14.80;99.90
16283;DHT22;8249;48.708;9.030;2024-03-17T09:22:46;14.60;99.90
16283;DHT22;8249;48.708;9.030;2024-03-17T09:25:13;14.40;99.90
16283;DHT22;8249;48.708;9.030;2024-03-17T09:27:40;14.30;99.90
16283;DHT22;8249;48.708;9.030;2024-03-17T09:30:08;14.40;99.90
16283;DHT22;8249;48.708;9.030;2024-03-17T09:32:37;14.60;99.90
16283;DHT22;8249;48.708;9.030;2024-03-17T09:35:06;14.50;99.90
16283;DHT22;8249;48.708;9.030;2024-03-17T09:37:33;14.50;99.90
16283;DHT22;8249;48.708;9.030;2024-03-17T09:40:00;14.50;99.90
16283;DHT22;8249;48.708;9.030;2024-03-17T09:42:28;14.30;99.90
16283;DHT22;8249;48.708;9.030;2024-03-17T09:44:55;14.30;99.90
16283;DHT22;8249;48.708;9.030;2024-03-17T09:47:23;14.20;99.90
16283;DHT22;8249;48.708;9.030;2024-03-17T09:49:52;14.30;99.90
16283;DHT22;8249;48.708;9.030;2024-03-17T09:52:21;14.20;99.90
16283;DHT22;8249;48.708;9.030;2024-03-17T09:54:59;14.00;99.90
16283;DHT22;8249;48.708;9.030;2024-03-17T09:57:27;14.10;99.90
16283;DHT22;8249;48.708;9.030;2024-03-17T09:59:56;14.10;99.90
16283;DHT22;8249;48.708;9.030;2024-03-17T10:02:22;14.00;99.90
16283;DHT22;8249;48.708;9.030;2024-03-17T10:04:49;14.00;99.90
16283;DHT22;8249;48.708;9.030;2024-03-17T10:07:16;14.30;99.90
16283;DHT22;8249;48.708;9.030;2024-03-17T10:09:45;14.70;99.90
16283;DHT22;8249;48.708;9.030;2024-03-17T10:12:32;15.00;99.90
16283;DHT22;8249;48.708;9.030;2024-03-17T10:14:59;15.50;99.90
16283;DHT22;8249;48.708;9.030;2024-03-17T10:17:30;15.80;99.90
16283;DHT22;8249;48.708;9.030;2024-03-17T10:20:15;15.80;99.90
16283;DHT22;8249;48.708;9.030;2024-03-17T10:23:04;15.90;99.90
16283;DHT22;8249;48.708;9.030;2024-03-17T10:25:38;16.10;99.90
16283;DHT22;8249;48.708;9.030;2024-03-17T10:28:10;16.00;99.90
16283;DHT22;8249;48.708;9.030;2024-03-17T10:30:39;16.30;99.90
16283;DHT22;8249;48.708;9.030;2024-03-17T10:33:07;16.60;99.90
16283;DHT22;8249;48.708;9.030;2024-03-17T10:35:36;16.70;99.90
16283;DHT22;8249;48.708;9.030;2024-03-17T10:38:05;16.80;99.90
16283;DHT22;8249;48.708;9.030;2024-03-17T10:40:34;17.00;99.90
16283;DHT22;8249;48.708;9.030;2024-03-17T10:43:03;16.70;99.90
16283;DHT22;8249;48.708;9.030;2024-03-17T10:45:32;16.30;99.90
16283;DHT22;8249;48.708;9.030;2024-03-17T10:48:02;15.90;99.90
16283;DHT22;8249;48.708;9.030;2024-03-17T10:50:31;15.80;99.90
16283;DHT22;8249;48.708;9.030;2024-03-17T10:53:01;15.90;99.90
16283;DHT22;8249;48.708;9.030;2024-03-17T10:55:32;15.90;99.90
16283;DHT22;8249;48.708;9.030;2024-03-17T10:58:04;15.90;99.90
16283;DHT22;8249;48.708;9.030;2024-03-17T11:00:35;15.80;99.90
16283;DHT22;8249;48.708;9.030;2024-03-17T11:03:03;16.00;99.90
16283;DHT22;8249;48.708;9.030;2024-03-17T11:05:37;16.50;99.90
16283;DHT22;8249;48.708;9.030;2024-03-17T11:08:06;16.80;99.90
16283;DHT22;8249;48.708;9.030;2024-03-17T11:10:38;17.00;99.90
16283;DHT22;8249;48.708;9.030;2024-03-17T11:13:22;17.00;99.90
16283;DHT22;8249;48.708;9.030;2024-03-17T11:15:49;17.30;99.90
16283;DHT22;8249;48.708;9.030;2024-03-17T11:18:37;17.70;99.90
16283;DHT22;8249;48.708;9.030;2024-03-17T11:21:06;17.80;99.90
16283;DHT22;8249;48.708;9.030;2024-03-17T11:23:34;17.00;99.90
16283;DHT22;8249;48.708;9.030;2024-03-17T11:26:03;16.50;99.90
16283;DHT22;8249;48.708;9.030;2024-03-17T11:28:51;16.00;99.90
16283;DHT22;8249;48.708;9.030;2024-03-17T11:31:35;15.60;99.90
16283;DHT22;8249;48.708;9.030;2024-03-17T11:34:03;15.30;99.90
16283;DHT22;8249;48.708;9.030;2024-03-17T11:36:34;15.20;99.90
16283;DHT22;8249;48.708;9.030;2024-03-17T11:39:03;15.40;99.90
16283;DHT22;8249;48.708;9.030;2024-03-17T11:41:36;15.60;99.90
16283;DHT22;8249;48.708;9.030;2024-03-17T11:44:24;15.90;99.90
16283;DHT22;8249;48.708;9.030;2024-03-17T11:46:53;16.20;99.90
16283;DHT22;8249;48.708;9.030;2024-03-17T11:49:20;16.10;99.90
16283;DHT22;8249;48.708;9.030;2024-03-17T11:51:48;16.00;99.90
16283;DHT22;8249;48.708;9.030;2024-03-17T11:54:15;16.30;99.90
16283;DHT22;8249;48.708;9.030;2024-03-17T11:56:47;16.20;99.90
16283;DHT22;8249;48.708;9.030;2024-03-17T11:59:13;16.10;99.90
16283;DHT22;8249;48.708;9.030;2024-03-17T12:01:44;16.20;99.90
16283;DHT22;8249;48.708;9.030;2024-03-17T12:04:12;16.40;99.90
16283;DHT22;8249;48.708;9.030;2024-03-17T12:06:39;16.20;99.90
16283;DHT22;8249;48.708;9.030;2024-03-17T12:09:11;15.80;99.90
16283;DHT22;8249;48.708;9.030;2024-03-17T12:11:46;15.60;99.90
16283;DHT22;8249;48.708;9.030;2024-03-17T12:14:16;15.50;99.90
16283;DHT22;8249;48.708;9.030;2024-03-17T12:16:53;15.10;99.90
16283;DHT22;8249;48.708;9.030;2024-03-17T12:19:20;15.10;99.90
16283;DHT22;8249;48.708;9.030;2024-03-17T12:21:50;15.10;99.90
16283;DHT22;8249;48.708;9.030;2024-03-17T12:24:17;15.00;99.90
16283;DHT22;8249;48.708;9.030;2024-03-17T12:26:45;14.90;99.90
16283;DHT22;8249;48.708;9.030;2024-03-17T12:29:27;14.80;99.90
16283;DHT22;8249;48.708;9.030;2024-03-17T12:31:58;14.70;99.90
16283;DHT22;8249;48.708;9.030;2024-03-17T12:34:25;14.70;99.90
16283;DHT22;8249;48.708;9.030;2024-03-17T12:36:54;14.60;99.90
16283;DHT22;8249;48.708;9.030;2024-03-17T12:39:21;14.50;99.90
16283;DHT22;8249;48.708;9.030;2024-03-17T12:42:04;14.30;99.90
16283;DHT22;8249;48.708;9.030;2024-03-17T12:44:30;14.40;99.90
16283;DHT22;8249;48.708;9.030;2024-03-17T12:47:00;14.40;99.90
16283;DHT22;8249;48.708;9.030;2024-03-17T12:49:27;14.30;99.90
16283;DHT22;8249;48.708;9.030;2024-03-17T12:51:54;14.30;99.90
16283;DHT22;8249;48.708;9.030;2024-03-17T12:54:22;14.50;99.90
16283;DHT22;8249;48.708;9.030;2024-03-17T12:56:50;14.50;99.90
16283;DHT22;8249;48.708;9.030;2024-03-17T12:59:42;14.50;99.90
16283;DHT22;8249;48.708;9.030;2024-03-17T13:02:41;14.60;99.90
16283;DHT22;8249;48.708;9.030;2024-03-17T13:05:15;14.80;99.90
16283;DHT22;8249;48.708;9.030;2024-03-17T13:07:43;14.80;99.90
16283;DHT22;8249;48.708;9.030;2024-03-17T13:10:12;15.00;99.90
16283;DHT22;8249;48.708;9.030;2024-03-17T13:12:40;15.00;99.90
16283;DHT22;8249;48.708;9.030;2024-03-17T13:15:09;15.10;99.90
16283;DHT22;8249;48.708;9.030;2024-03-17T13:17:37;15.20;99.90
16283;DHT22;8249;48.708;9.030;2024-03-17T13:20:06;15.30;99.90
16283;DHT22;8249;48.708;9.030;2024-03-17T13:22:37;15.40;99.90
16283;DHT22;8249;48.708;9.030;2024-03-17T13:25:08;15.10;99.90
16283;DHT22;8249;48.708;9.030;2024-03-17T13:27:35;15.00;99.90
16283;DHT22;8249;48.708;9.030;2024-03-17T13:30:03;14.90;99.90
16283;DHT22;8249;48.708;9.030;2024-03-17T13:32:31;14.90;99.90
16283;DHT22;8249;48.708;9.030;2024-03-17T13:35:00;15.00;99.90
16283;DHT22;8249;48.708;9.030;2024-03-17T13:37:27;14.90;99.90
16283;DHT22;8249;48.708;9.030;2024-03-17T13:39:54;15.00;99.90
16283;DHT22;8249;48.708;9.030;2024-03-17T13:42:21;15.20;99.90
16283;DHT22;8249;48.708;9.030;2024-03-17T13:44:48;15.50;99.90
16283;DHT22;8249;48.708;9.030;2024-03-17T13:47:15;16.10;99.90
16283;DHT22;8249;48.708;9.030;2024-03-17T13:49:43;16.60;99.90
16283;DHT22;8249;48.708;9.030;2024-03-17T13:52:11;17.20;99.90
16283;DHT22;8249;48.708;9.030;2024-03-17T13:54:38;17.80;99.90
16283;DHT22;8249;48.708;9.030;2024-03-17T13:57:05;18.10;99.90
16283;DHT22;8249;48.708;9.030;2024-03-17T13:59:32;18.10;99.90
16283;DHT22;8249;48.708;9.030;2024-03-17T14:01:59;18.00;99.90
16283;DHT22;8249;48.708;9.030;2024-03-17T14:04:27;18.40;99.90
16283;DHT22;8249;48.708;9.030;2024-03-17T14:06:55;18.50;99.90
16283;DHT22;8249;48.708;9.030;2024-03-17T14:09:23;19.60;99.90
16283;DHT22;8249;48.708;9.030;2024-03-17T14:11:50;19.80;99.90
16283;DHT22;8249;48.708;9.030;2024-03-17T14:14:17;19.40;99.90
16283;DHT22;8249;48.708;9.030;2024-03-17T14:16:43;18.60;99.90
16283;DHT22;8249;48.708;9.030;2024-03-17T14:19:10;17.70;99.90
16283;DHT22;8249;48.708;9.030;2024-03-17T14:21:37;17.30;99.90
16283;DHT22;8249;48.708;9.030;2024-03-17T14:24:04;17.20;99.90
16283;DHT22;8249;48.708;9.030;2024-03-17T14:26:34;17.30;99.90
16283;DHT22;8249;48.708;9.030;2024-03-17T14:29:01;17.30;99.90
16283;DHT22;8249;48.708;9.030;2024-03-17T14:31:30;17.30;99.90
16283;DHT22;8249;48.708;9.030;2024-03-17T14:33:58;17.30;99.90
16283;DHT22;8249;48.708;9.030;2024-03-17T14:36:26;17.00;99.90
16283;DHT22;8249;48.708;9.030;2024-03-17T14:38:53;17.10;99.90
16283;DHT22;8249;48.708;9.030;2024-03-17T14:41:20;17.10;99.90
16283;DHT22;8249;48.708;9.030;2024-03-17T14:43:49;17.00;99.90
16283;DHT22;8249;48.708;9.030;2024-03-17T14:46:16;16.90;99.90
16283;DHT22;8249;48.708;9.030;2024-03-17T14:48:43;16.70;99.90
16283;DHT22;8249;48.708;9.030;2024-03-17T14:51:10;16.60;99.90
16283;DHT22;8249;48.708;9.030;2024-03-17T14:53:37;16.40;99.90
16283;DHT22;8249;48.708;9.030;2024-03-17T14:56:08;16.30;99.90
16283;DHT22;8249;48.708;9.030;2024-03-17T14:58:35;16.30;99.90
16283;DHT22;8249;48.708;9.030;2024-03-17T15:01:03;16.10;99.90
16283;DHT22;8249;48.708;9.030;2024-03-17T15:03:30;15.90;99.90
16283;DHT22;8249;48.708;9.030;2024-03-17T15:05:59;15.80;99.90
16283;DHT22;8249;48.708;9.030;2024-03-17T15:08:26;15.60;99.90
16283;DHT22;8249;48.708;9.030;2024-03-17T15:10:54;15.50;99.90
16283;DHT22;8249;48.708;9.030;2024-03-17T15:13:22;15.60;99.90
16283;DHT22;8249;48.708;9.030;2024-03-17T15:15:49;15.50;99.90
16283;DHT22;8249;48.708;9.030;2024-03-17T15:18:19;15.60;99.90
16283;DHT22;8249;48.708;9.030;2024-03-17T15:20:51;15.60;99.90
16283;DHT22;8249;48.708;9.030;2024-03-17T15:23:18;15.50;99.90
16283;DHT22;8249;48.708;9.030;2024-03-17T15:25:45;15.20;99.90
16283;DHT22;8249;48.708;9.030;2024-03-17T15:28:12;15.00;99.90
16283;DHT22;8249;48.708;9.030;2024-03-17T15:30:39;14.90;99.90
16283;DHT22;8249;48.708;9.030;2024-03-17T15:33:06;14.90;99.90
16283;DHT22;8249;48.708;9.030;2024-03-17T15:35:35;14.90;99.90
16283;DHT22;8249;48.708;9.030;2024-03-17T15:38:02;14.80;99.90
16283;DHT22;8249;48.708;9.030;2024-03-17T15:40:29;14.70;99.90
16283;DHT22;8249;48.708;9.030;2024-03-17T15:42:56;14.60;99.90
16283;DHT22;8249;48.708;9.030;2024-03-17T15:45:24;14.60;99.90
16283;DHT22;8249;48.708;9.030;2024-03-17T15:47:52;14.40;99.90
16283;DHT22;8249;48.708;9.030;2024-03-17T15:50:20;14.30;99.90
16283;DHT22;8249;48.708;9.030;2024-03-17T15:52:48;14.20;99.90
16283;DHT22;8249;48.708;9.030;2024-03-17T15:55:17;14.10;99.90
16283;DHT22;8249;48.708;9.030;2024-03-17T15:57:46;14.10;99.90
16283;DHT22;8249;48.708;9.030;2024-03-17T16:00:13;14.00;99.90
16283;DHT22;8249;48.708;9.030;2024-03-17T16:02:44;14.00;99.90